Bayan-Ovoo, Mongolia
Current Conditions -  °F | °C
As of 8:30 AM on Thursday 18 Dec 2014 (Local Time) from ZMUB Reporting Station
Scattered Clouds Scattered Clouds  
Wind Chill: -4°   Ceiling: Unl
Heat Index:   Visibility: 5mi
Dew Point:   Wind: 4mph
Humidity: 85%   Direction: 360°N
Pressure: 30"   Gusts: NA
Location:  47.78°N, 112.12°E
Report Text: ZMUB 180030Z 36002MPS 8000NW SCT100 M15/M17 Q1016 NOSIG RMK QFE655.1 79 NW MO
Loading
Personal Weather Stations






























Interactive Weather Map New forecast layout! Learn more

10-Day Weather Forecast

Advertisements
Track Severe Weather on mobile